Time,TemperatureF,DewpointF,PressureIn,WindDirection,WindDirectionDegrees,WindSpeedMPH,WindSpeedGustMPH,Humidity,HourlyPrecipIn,Conditions,Clouds,dailyrainin,SoftwareType,DateUTC
2013-01-12 00:00:00,19.4,-4.0,29.86,WNW,302,4.0,8.0,36,0.00,,,0.00,weatherlink.com 1.10,2013-01-12 07:00:00,
2013-01-12 00:16:00,20.8,-6.0,29.88,WNW,289,5.0,12.0,31,0.00,,,0.00,weatherlink.com 1.10,2013-01-12 07:16:00,
2013-01-12 00:31:00,21.1,-7.0,29.89,WNW,284,7.0,13.0,29,0.00,,,0.00,weatherlink.com 1.10,2013-01-12 07:31:00,
2013-01-12 00:46:00,20.8,-7.0,29.89,West,273,1.0,7.0,29,0.00,,,0.00,weatherlink.com 1.10,2013-01-12 07:46:00,
2013-01-12 01:01:00,20.1,-7.0,29.90,WNW,288,0.0,3.0,30,0.00,,,0.00,weatherlink.com 1.10,2013-01-12 08:01:00,
2013-01-12 01:16:00,17.9,-3.0,29.92,NE,34,2.0,4.0,39,0.00,,,0.00,weatherlink.com 1.10,2013-01-12 08:16:00,
2013-01-12 01:31:00,15.5,0.0,29.93,NNE,20,2.0,3.0,50,0.00,,,0.00,weatherlink.com 1.10,2013-01-12 08:31:00,
2013-01-12 01:46:00,12.3,2.0,29.95,NNW,346,0.0,4.0,64,0.00,,,0.00,weatherlink.com 1.10,2013-01-12 08:46:00,
2013-01-12 02:01:00,9.7,2.0,29.96,NNE,19,1.0,5.0,72,0.00,,,0.00,weatherlink.com 1.10,2013-01-12 09:01:00,
2013-01-12 02:16:00,8.4,2.0,29.97,NE,36,1.0,5.0,76,0.00,,,0.00,weatherlink.com 1.10,2013-01-12 09:16:00,
2013-01-12 02:31:00,7.7,3.0,29.98,NNE,25,1.0,3.0,79,0.00,,,0.00,weatherlink.com 1.10,2013-01-12 09:31:00,
2013-01-12 02:46:00,7.3,3.0,29.98,North,360,3.0,4.0,81,0.00,,,0.00,weatherlink.com 1.10,2013-01-12 09:46:00,
2013-01-12 03:01:00,7.0,3.0,29.99,NE,38,1.0,6.0,82,0.00,,,0.00,weatherlink.com 1.10,2013-01-12 10:01:00,
2013-01-12 03:16:00,6.8,2.0,29.99,NE,34,2.0,4.0,82,0.00,,,0.00,weatherlink.com 1.10,2013-01-12 10:16:00,
2013-01-12 03:31:00,6.6,2.0,29.98,NW,308,1.0,3.0,82,0.00,,,0.00,weatherlink.com 1.10,2013-01-12 10:31:00,
2013-01-12 03:47:00,6.4,2.0,29.98,WNW,296,0.0,2.0,81,0.00,,,0.00,weatherlink.com 1.10,2013-01-12 10:47:00,
2013-01-12 04:02:00,5.9,1.0,30.00,East,92,0.0,1.0,81,0.00,,,0.00,weatherlink.com 1.10,2013-01-12 11:02:00,
2013-01-12 04:17:00,5.7,1.0,29.99,East,80,0.0,1.0,81,0.00,,,0.00,weatherlink.com 1.10,2013-01-12 11:17:00,
2013-01-12 04:32:00,5.4,1.0,30.00,East,80,0.0,1.0,82,0.00,,,0.00,weatherlink.com 1.10,2013-01-12 11:32:00,
2013-01-12 04:47:00,5.1,1.0,30.02,ENE,73,0.0,2.0,83,0.00,,,0.00,weatherlink.com 1.10,2013-01-12 11:47:00,
2013-01-12 05:02:00,5.0,1.0,30.03,ENE,72,0.0,1.0,83,0.00,,,0.00,weatherlink.com 1.10,2013-01-12 12:02:00,
2013-01-12 05:17:00,5.5,2.0,30.05,NE,36,0.0,2.0,84,0.00,,,0.00,weatherlink.com 1.10,2013-01-12 12:17:00,
2013-01-12 05:32:00,5.5,2.0,30.07,East,80,0.0,1.0,84,0.00,,,0.00,weatherlink.com 1.10,2013-01-12 12:32:00,
2013-01-12 05:47:00,5.5,2.0,30.07,NW,322,2.0,3.0,84,0.00,,,0.00,weatherlink.com 1.10,2013-01-12 12:47:00,
2013-01-12 06:02:00,5.0,1.0,30.08,WNW,302,0.0,4.0,83,0.00,,,0.00,weatherlink.com 1.10,2013-01-12 13:02:00,
2013-01-12 06:17:00,4.8,1.0,30.09,WNW,293,0.0,2.0,83,0.00,,,0.00,weatherlink.com 1.10,2013-01-12 13:17:00,
2013-01-12 06:32:00,4.5,0.0,30.10,WNW,293,0.0,0.0,82,0.00,,,0.00,weatherlink.com 1.10,2013-01-12 13:32:00,
2013-01-12 06:47:00,4.1,0.0,30.10,WNW,293,0.0,0.0,82,0.00,,,0.00,weatherlink.com 1.10,2013-01-12 13:47:00,
2013-01-12 07:02:00,3.5,-1.0,30.12,WNW,293,0.0,0.0,81,0.00,,,0.00,weatherlink.com 1.10,2013-01-12 14:02:00,
2013-01-12 07:18:00,3.2,-1.0,30.14,NW,325,0.0,1.0,82,0.00,,,0.00,weatherlink.com 1.10,2013-01-12 14:18:00,
2013-01-12 07:33:00,3.5,-1.0,30.15,NW,325,0.0,1.0,83,0.00,,,0.00,weatherlink.com 1.10,2013-01-12 14:33:00,
2013-01-12 07:48:00,3.8,0.0,30.17,NW,325,1.0,1.0,83,0.00,,,0.00,weatherlink.com 1.10,2013-01-12 14:48:00,
2013-01-12 08:03:00,4.2,0.0,30.18,NW,325,0.0,2.0,83,0.00,,,0.00,weatherlink.com 1.10,2013-01-12 15:03:00,
2013-01-12 08:18:00,4.7,1.0,30.19,NNE,18,1.0,3.0,83,0.00,,,0.00,weatherlink.com 1.10,2013-01-12 15:18:00,
2013-01-12 08:33:00,4.7,1.0,30.20,NNE,26,1.0,4.0,83,0.00,,,0.00,weatherlink.com 1.10,2013-01-12 15:33:00,
2013-01-12 08:48:00,5.0,1.0,30.21,NE,34,2.0,4.0,83,0.00,,,0.00,weatherlink.com 1.10,2013-01-12 15:48:00,
2013-01-12 09:03:00,5.3,1.0,30.21,NE,36,1.0,3.0,83,0.00,,,0.00,weatherlink.com 1.10,2013-01-12 16:03:00,
2013-01-12 09:18:00,5.6,1.0,30.22,NE,34,3.0,4.0,82,0.00,,,0.00,weatherlink.com 1.10,2013-01-12 16:18:00,
2013-01-12 10:03:00,7.4,2.0,30.23,NNW,342,2.0,7.0,78,0.00,,,0.00,weatherlink.com 1.10,2013-01-12 17:03:00,
2013-01-12 10:18:00,7.7,2.0,30.24,WNW,299,4.0,6.0,77,0.00,,,0.00,weatherlink.com 1.10,2013-01-12 17:18:00,
2013-01-12 10:34:00,8.6,3.0,30.24,North,5,4.0,4.0,78,0.00,,,0.00,weatherlink.com 1.10,2013-01-12 17:34:00,
2013-01-12 10:49:00,9.3,3.0,30.24,NW,306,1.0,4.0,76,0.00,,,0.00,weatherlink.com 1.10,2013-01-12 17:49:00,
2013-01-12 11:04:00,9.6,3.0,30.23,NE,44,2.0,4.0,75,0.00,,,0.00,weatherlink.com 1.10,2013-01-12 18:04:00,
2013-01-12 11:19:00,10.2,4.0,30.23,ENE,70,1.0,3.0,76,0.00,,,0.00,weatherlink.com 1.10,2013-01-12 18:19:00,
2013-01-12 11:34:00,10.4,4.0,30.22,East,94,5.0,6.0,75,0.00,,,0.00,weatherlink.com 1.10,2013-01-12 18:34:00,
2013-01-12 11:49:00,10.3,3.0,30.22,East,89,2.0,7.0,73,0.00,,,0.00,weatherlink.com 1.10,2013-01-12 18:49:00,
2013-01-12 12:04:00,11.7,4.0,30.21,SSW,200,0.0,4.0,70,0.00,,,0.00,weatherlink.com 1.10,2013-01-12 19:04:00,
2013-01-12 12:19:00,11.9,4.0,30.21,SE,126,4.0,4.0,70,0.00,,,0.00,weatherlink.com 1.10,2013-01-12 19:19:00,
2013-01-12 12:34:00,12.3,4.0,30.20,SSE,162,0.0,4.0,70,0.00,,,0.00,weatherlink.com 1.10,2013-01-12 19:34:00,
2013-01-12 12:49:00,12.3,4.0,30.19,West,271,0.0,3.0,69,0.00,,,0.00,weatherlink.com 1.10,2013-01-12 19:49:00,
2013-01-12 13:04:00,12.7,4.0,30.19,East,90,0.0,2.0,68,0.00,,,0.00,weatherlink.com 1.10,2013-01-12 20:04:00,
2013-01-12 13:19:00,12.9,4.0,30.19,ESE,117,1.0,2.0,68,0.00,,,0.00,weatherlink.com 1.10,2013-01-12 20:19:00,
2013-01-12 13:34:00,13.7,5.0,30.19,ESE,112,0.0,3.0,67,0.00,,,0.00,weatherlink.com 1.10,2013-01-12 20:34:00,
2013-01-12 13:49:00,14.6,5.0,30.19,SSE,157,0.0,1.0,66,0.00,,,0.00,weatherlink.com 1.10,2013-01-12 20:49:00,
2013-01-12 14:05:00,14.9,4.0,30.19,East,99,0.0,5.0,63,0.00,,,0.00,weatherlink.com 1.10,2013-01-12 21:05:00,
2013-01-12 14:20:00,15.0,4.0,30.20,SE,133,1.0,4.0,62,0.00,,,0.00,weatherlink.com 1.10,2013-01-12 21:20:00,
2013-01-12 14:35:00,14.8,3.0,30.21,SE,126,4.0,8.0,59,0.00,,,0.00,weatherlink.com 1.10,2013-01-12 21:35:00,
2013-01-12 14:50:00,13.4,1.0,30.22,SE,128,3.0,9.0,59,0.00,,,0.00,weatherlink.com 1.10,2013-01-12 21:50:00,
2013-01-12 15:05:00,12.8,1.0,30.23,East,94,2.0,10.0,59,0.00,,,0.00,weatherlink.com 1.10,2013-01-12 22:05:00,
2013-01-12 15:20:00,12.6,0.0,30.24,NE,45,2.0,7.0,57,0.00,,,0.00,weatherlink.com 1.10,2013-01-12 22:20:00,
2013-01-12 15:35:00,12.4,0.0,30.24,East,79,1.0,5.0,59,0.00,,,0.00,weatherlink.com 1.10,2013-01-12 22:35:00,
2013-01-12 15:50:00,12.1,0.0,30.25,ESE,107,5.0,6.0,58,0.00,,,0.00,weatherlink.com 1.10,2013-01-12 22:50:00,
2013-01-12 16:05:00,11.5,0.0,30.26,ENE,67,2.0,4.0,60,0.00,,,0.00,weatherlink.com 1.10,2013-01-12 23:05:00,
2013-01-12 16:20:00,11.4,0.0,30.27,ESE,111,1.0,6.0,60,0.00,,,0.00,weatherlink.com 1.10,2013-01-12 23:20:00,
2013-01-12 16:35:00,10.7,0.0,30.28,ENE,76,0.0,8.0,61,0.00,,,0.00,weatherlink.com 1.10,2013-01-12 23:35:00,
2013-01-12 16:50:00,10.4,0.0,30.29,East,80,2.0,7.0,62,0.00,,,0.00,weatherlink.com 1.10,2013-01-12 23:50:00,
2013-01-12 17:05:00,9.9,-1.0,30.30,ESE,115,2.0,6.0,63,0.00,,,0.00,weatherlink.com 1.10,2013-01-13 00:05:00,
2013-01-12 17:20:00,9.5,0.0,30.30,East,83,0.0,6.0,65,0.00,,,0.00,weatherlink.com 1.10,2013-01-13 00:20:00,
2013-01-12 17:36:00,9.3,0.0,30.31,ESE,111,5.0,5.0,66,0.00,,,0.00,weatherlink.com 1.10,2013-01-13 00:36:00,
2013-01-12 17:51:00,9.0,1.0,30.31,SE,136,1.0,3.0,69,0.00,,,0.00,weatherlink.com 1.10,2013-01-13 00:51:00,
2013-01-12 18:06:00,8.7,2.0,30.32,ESE,114,2.0,4.0,73,0.00,,,0.00,weatherlink.com 1.10,2013-01-13 01:06:00,
2013-01-12 18:21:00,8.4,2.0,30.32,SE,138,1.0,3.0,74,0.00,,,0.00,weatherlink.com 1.10,2013-01-13 01:21:00,
2013-01-12 18:36:00,8.1,2.0,30.33,SE,140,0.0,3.0,76,0.00,,,0.00,weatherlink.com 1.10,2013-01-13 01:36:00,
2013-01-12 18:51:00,7.7,2.0,30.33,SSE,150,1.0,3.0,76,0.00,,,0.00,weatherlink.com 1.10,2013-01-13 01:51:00,
2013-01-12 19:06:00,7.3,1.0,30.33,SSE,150,0.0,1.0,76,0.00,,,0.00,weatherlink.com 1.10,2013-01-13 02:06:00,
2013-01-12 19:21:00,7.1,2.0,30.33,SSE,150,0.0,0.0,78,0.00,,,0.00,weatherlink.com 1.10,2013-01-13 02:21:00,
2013-01-12 19:36:00,6.8,2.0,30.33,SSE,150,0.0,0.0,79,0.00,,,0.00,weatherlink.com 1.10,2013-01-13 02:36:00,
2013-01-12 19:53:00,6.4,1.0,30.34,SSE,150,0.0,0.0,79,0.00,,,0.00,weatherlink.com 1.10,2013-01-13 02:53:00,
2013-01-12 20:06:00,6.1,1.0,30.34,SSE,150,0.0,0.0,80,0.00,,,0.00,weatherlink.com 1.10,2013-01-13 03:06:00,
2013-01-12 20:21:00,5.6,1.0,30.34,SSE,150,0.0,0.0,80,0.00,,,0.00,weatherlink.com 1.10,2013-01-13 03:21:00,
2013-01-12 20:36:00,4.7,-1.0,30.34,SSE,150,0.0,0.0,79,0.00,,,0.00,weatherlink.com 1.10,2013-01-13 03:36:00,
2013-01-12 20:52:00,3.8,-1.0,30.34,SSE,150,0.0,0.0,79,0.00,,,0.00,weatherlink.com 1.10,2013-01-13 03:52:00,
2013-01-12 21:07:00,3.5,-1.0,30.35,SSE,150,0.0,0.0,82,0.00,,,0.00,weatherlink.com 1.10,2013-01-13 04:07:00,
2013-01-12 21:22:00,3.5,-1.0,30.35,SSE,150,0.0,0.0,82,0.00,,,0.00,weatherlink.com 1.10,2013-01-13 04:22:00,
2013-01-12 21:37:00,3.5,0.0,30.36,SSE,150,0.0,0.0,84,0.00,,,0.00,weatherlink.com 1.10,2013-01-13 04:37:00,
2013-01-12 21:52:00,4.0,0.0,30.36,SSE,150,0.0,0.0,84,0.00,,,0.00,weatherlink.com 1.10,2013-01-13 04:52:00,
2013-01-12 22:07:00,4.5,0.0,30.36,SSE,150,0.0,0.0,83,0.00,,,0.00,weatherlink.com 1.10,2013-01-13 05:07:00,
2013-01-12 22:22:00,4.1,-1.0,30.36,SSE,150,0.0,0.0,81,0.00,,,0.00,weatherlink.com 1.10,2013-01-13 05:22:00,
2013-01-12 22:37:00,3.8,-1.0,30.36,SSE,150,0.0,0.0,82,0.00,,,0.00,weatherlink.com 1.10,2013-01-13 05:37:00,
2013-01-12 22:52:00,3.4,-1.0,30.37,SSE,150,0.0,0.0,82,0.00,,,0.00,weatherlink.com 1.10,2013-01-13 05:52:00,
2013-01-12 23:07:00,3.1,-1.0,30.37,SSE,150,0.0,0.0,82,0.00,,,0.00,weatherlink.com 1.10,2013-01-13 06:07:00,
2013-01-12 23:22:00,2.8,-2.0,30.36,SSE,150,0.0,0.0,82,0.00,,,0.00,weatherlink.com 1.10,2013-01-13 06:22:00,
2013-01-12 23:37:00,2.4,-2.0,30.37,SSE,150,0.0,0.0,82,0.00,,,0.00,weatherlink.com 1.10,2013-01-13 06:37:00,
2013-01-12 23:52:00,2.0,-3.0,30.37,SSE,150,0.0,0.0,81,0.00,,,0.00,weatherlink.com 1.10,2013-01-13 06:52:00,